Hunter Army Air Field
KSVN : now visible

Airfield :











YOU CAN JOIN US ON...

 
LOGIN :

Register | Disclaimer

   EN    FR    IT 

 









Legend :    VFR   Marginal VFR   IFR   Intensive IFR   Very Intensive IFR
Visi :
Ceiling :
>= 8 km
>= 3000ft
5 to 8 km
1000 to 3000 ft
1500m to 5 km
500 to 1000 ft
800 to 1500m
200 to 500 ft
< 800m
< 200 ft
Symbols :   Thunderstorms  Fog  Heavy snow  Heavy precipitations  Wind > 20 kt






- Airport Elevation : 41 ft


KSVN - Hunter Army Air Field

CURRENT METAR :
  • 021856Z AUTO 29007KT 10SM CLR 21/04 A2997 RMK AO2 SLP152 T02080044 $

EXPIRED METARs :
  • 021656Z AUTO 31006KT 10SM CLR 19/05 A3002 RMK AO2 SLP169 T01920053 $
  • 021644Z 33005KT 10SM CLR 19/05 A3002 RMK SLP169 $